Time;durP1;ratioP1;P1;durP2;ratioP2;P2;SDS_P1;SDS_P2;PMS_P1;PMS_P2;Temp;Humidity;BMP_temperature;BMP_pressure;BME280_temperature;BME280_humidity;BME280_pressure;Samples;Min_cycle;Max_cycle;Signal;HPM_P1;HPM_P2
2021/11/19 00:00:53;;;;;;;229.95;65.03;;;;;;;0.63;100.00;101375.14;1577768;90;21960;-89
2021/11/19 00:03:21;;;;;;;218.45;63.50;;;;;;;0.62;100.00;101375.33;1577778;90;20994;-89
2021/11/19 00:05:48;;;;;;;214.95;61.80;;;;;;;0.65;100.00;101363.86;1578163;90;21129;-89
2021/11/19 00:08:17;;;;;;;221.85;61.48;;;;;;;0.68;100.00;101361.36;1577377;90;21069;-88
2021/11/19 00:10:43;;;;;;;231.85;61.48;;;;;;;0.71;100.00;101348.22;1577900;90;21074;-89
2021/11/19 00:13:10;;;;;;;223.40;62.45;;;;;;;0.72;100.00;101342.76;1577546;90;21090;-89
2021/11/19 00:15:36;;;;;;;216.57;61.00;;;;;;;0.74;100.00;101346.07;1577627;90;21034;-89
2021/11/19 00:18:03;;;;;;;212.45;61.98;;;;;;;0.75;100.00;101353.52;1577617;89;21106;-89
2021/11/19 00:20:31;;;;;;;198.45;56.63;;;;;;;0.76;100.00;101351.19;1577754;90;21117;-88
2021/11/19 00:23:03;;;;;;;187.00;51.83;;;;;;;0.74;100.00;101347.40;1577807;90;21085;-88
2021/11/19 00:25:29;;;;;;;169.28;49.23;;;;;;;0.70;100.00;101347.91;1577439;90;21534;-89
2021/11/19 00:27:57;;;;;;;172.20;50.20;;;;;;;0.64;100.00;101338.83;1609055;86;21062;-89
2021/11/19 00:30:25;;;;;;;181.52;53.45;;;;;;;0.66;100.00;101336.33;1654374;86;21066;-89
2021/11/19 00:32:51;;;;;;;170.50;50.48;;;;;;;0.71;100.00;101330.51;1622355;87;21458;-88
2021/11/19 00:35:19;;;;;;;175.75;52.80;;;;;;;0.71;100.00;101323.88;1654018;86;21594;-89
2021/11/19 00:37:50;;;;;;;173.57;50.10;;;;;;;0.74;100.00;101328.01;1653656;86;21413;-88
2021/11/19 00:40:21;;;;;;;171.62;48.95;;;;;;;0.73;100.00;101323.17;1651282;86;21074;-89
2021/11/19 00:42:47;;;;;;;169.82;50.52;;;;;;;0.75;100.00;101325.67;1648306;86;21116;-88
2021/11/19 00:45:14;;;;;;;177.70;51.80;;;;;;;0.74;100.00;101321.37;1622027;88;21173;-89
2021/11/19 00:47:40;;;;;;;182.07;53.70;;;;;;;0.70;100.00;101312.92;1653058;86;21087;-88
2021/11/19 00:50:09;;;;;;;181.90;51.98;;;;;;;0.71;100.00;101301.33;1654148;86;20971;-88
2021/11/19 00:52:35;;;;;;;173.47;52.30;;;;;;;0.69;100.00;101295.38;1654261;86;21059;-89
2021/11/19 00:55:02;;;;;;;178.05;51.05;;;;;;;0.71;100.00;101300.48;1653616;86;21589;-88
2021/11/19 00:57:28;;;;;;;175.38;53.68;;;;;;;0.71;100.00;101287.22;1621902;88;21000;-88
2021/11/19 00:59:54;;;;;;;179.32;50.98;;;;;;;0.72;100.00;101295.02;1653730;86;21094;-88
2021/11/19 01:02:24;;;;;;;171.35;53.70;;;;;;;0.73;100.00;101300.63;1654000;86;21005;-88
2021/11/19 01:04:52;;;;;;;187.45;55.30;;;;;;;0.72;100.00;101305.63;1649246;86;21561;-90
2021/11/19 01:07:21;;;;;;;177.65;52.78;;;;;;;0.74;100.00;101294.34;1654133;85;21046;-90
2021/11/19 01:09:55;;;;;;;194.50;55.60;;;;;;;0.73;100.00;101290.02;1661055;85;21018;-88
2021/11/19 01:12:26;;;;;;;177.07;53.35;;;;;;;0.76;100.00;101289.66;1636659;86;22586;-87
2021/11/19 01:15:07;;;;;;;187.72;55.12;;;;;;;0.78;100.00;101296.95;1661026;85;21034;-87
2021/11/19 01:17:54;;;;;;;187.07;55.30;;;;;;;0.80;100.00;101294.14;1657105;85;21119;-87
2021/11/19 01:20:40;;;;;;;189.13;55.43;;;;;;;0.81;100.00;101289.14;1602890;88;21619;-87
2021/11/19 01:23:10;;;;;;;184.93;53.23;;;;;;;0.82;100.00;101292.11;1552057;91;21487;-87
2021/11/19 01:25:40;;;;;;;184.78;51.53;;;;;;;0.84;100.00;101290.94;1552003;91;21284;-87
2021/11/19 01:28:06;;;;;;;185.05;50.85;;;;;;;0.90;100.00;101292.05;1551103;91;21392;-88
2021/11/19 01:30:38;;;;;;;180.65;53.05;;;;;;;0.89;100.00;101281.13;1556197;90;21062;-88
2021/11/19 01:33:05;;;;;;;190.57;53.80;;;;;;;0.95;100.00;101287.55;1553017;90;21112;-87
2021/11/19 01:35:32;;;;;;;177.80;52.35;;;;;;;0.95;100.00;101273.77;1556311;91;21108;-88
2021/11/19 01:37:58;;;;;;;200.03;54.60;;;;;;;0.91;100.00;101261.84;1556338;92;21680;-89
2021/11/19 01:40:30;;;;;;;202.80;55.00;;;;;;;0.83;100.00;101266.74;1556166;92;21141;-89
2021/11/19 01:43:00;;;;;;;194.95;54.48;;;;;;;0.84;100.00;101266.23;1556273;91;21177;-89
2021/11/19 01:45:34;;;;;;;184.60;53.15;;;;;;;0.89;100.00;101275.31;1556407;92;21066;-89
2021/11/19 01:48:00;;;;;;;;;;;;;;;0.89;100.00;101273.16;1558814;90;21065;-89
2021/11/19 01:50:37;;;;;;;174.60;50.65;;;;;;;0.93;100.00;101273.63;1556190;92;21161;-89
2021/11/19 01:53:26;;;;;;;179.32;53.38;;;;;;;0.94;100.00;101276.59;1555927;91;21073;-89
2021/11/19 01:56:07;;;;;;;183.87;51.08;;;;;;;0.95;100.00;101271.63;1556060;92;21154;-89
2021/11/19 01:58:53;;;;;;;180.55;52.35;;;;;;;0.98;100.00;101272.59;1555450;92;21172;-89
2021/11/19 02:01:27;;;;;;;183.93;52.62;;;;;;;1.01;100.00;101270.91;1507048;93;21078;-89
2021/11/19 02:03:59;;;;;;;172.47;51.05;;;;;;;1.02;100.00;101268.05;1453362;96;21210;-89
2021/11/19 02:06:39;;;;;;;165.85;52.33;;;;;;;1.05;100.00;101263.71;1453690;96;21190;-89
2021/11/19 02:09:10;;;;;;;171.57;51.40;;;;;;;1.05;100.00;101265.04;1453292;96;21100;-89
2021/11/19 02:11:47;;;;;;;170.82;51.42;;;;;;;0.99;100.00;101257.80;1452881;95;21142;-89
2021/11/19 02:14:42;;;;;;;166.28;52.50;;;;;;;0.97;100.00;101253.67;1479425;96;21231;-89
2021/11/19 02:17:10;;;;;;;173.13;50.70;;;;;;;0.92;100.00;101251.58;1476288;95;21641;-89
2021/11/19 02:19:49;;;;;;;172.55;51.40;;;;;;;0.88;100.00;101243.16;1475476;95;21517;-87
2021/11/19 02:22:30;;;;;;;196.82;53.60;;;;;;;0.81;100.00;101244.86;1387838;102;21139;-89
2021/11/19 02:25:03;;;;;;;172.62;51.45;;;;;;;0.73;100.00;101246.25;1374294;103;21189;-87
2021/11/19 02:27:40;;;;;;;174.53;52.23;;;;;;;0.66;100.00;101236.87;1373956;103;21075;-87
2021/11/19 02:30:12;;;;;;;177.93;53.23;;;;;;;0.61;100.00;101234.42;1374327;103;21268;-87
2021/11/19 02:32:43;;;;;;;191.60;54.33;;;;;;;0.54;100.00;101229.52;1288257;110;21156;-86
2021/11/19 02:35:15;;;;;;;177.55;54.63;;;;;;;0.50;100.00;101230.39;1293611;109;21251;-88
2021/11/19 02:37:46;;;;;;;192.15;54.58;;;;;;;0.46;100.00;101227.75;1291765;109;21190;-88
2021/11/19 02:40:17;;;;;;;191.25;55.43;;;;;;;0.42;100.00;101219.84;1292432;107;21207;-88
2021/11/19 02:42:48;;;;;;;183.15;53.55;;;;;;;0.37;100.00;101219.03;1347677;105;21240;-87
2021/11/19 02:45:23;;;;;;;207.43;57.90;;;;;;;0.31;100.00;101219.74;1347675;105;21183;-87
2021/11/19 02:47:49;;;;;;;205.65;57.48;;;;;;;0.28;100.00;101216.63;1347598;105;21097;-87
2021/11/19 02:50:19;;;;;;;195.92;56.53;;;;;;;0.23;100.00;101217.14;1347963;105;21726;-88
2021/11/19 02:52:48;;;;;;;195.40;57.75;;;;;;;0.18;100.00;101206.27;1347914;105;21195;-87
2021/11/19 02:55:25;;;;;;;194.47;56.75;;;;;;;0.15;100.00;101203.47;1347873;105;21142;-88
2021/11/19 02:57:52;;;;;;;182.62;55.35;;;;;;;0.11;100.00;101192.87;1350738;104;21260;-87
2021/11/19 03:00:32;;;;;;;207.12;55.98;;;;;;;0.06;100.00;101195.73;1370633;103;21129;-87
2021/11/19 03:02:58;;;;;;;190.77;56.40;;;;;;;0.03;100.00;101200.05;1343405;105;21208;-88
2021/11/19 03:05:27;;;;;;;176.78;52.85;;;;;;;0.01;100.00;101198.10;1343608;105;21187;-88
2021/11/19 03:07:54;;;;;;;180.82;55.08;;;;;;;-0.01;100.00;101188.48;1347428;104;21232;-87
2021/11/19 03:10:25;;;;;;;193.00;54.60;;;;;;;-0.02;100.00;101195.30;1357697;104;21199;-88
2021/11/19 03:12:52;;;;;;;194.43;57.85;;;;;;;-0.05;100.00;101199.63;1356767;104;21195;-88
2021/11/19 03:15:24;;;;;;;187.68;55.70;;;;;;;-0.09;100.00;101197.83;1344761;104;21211;-87
2021/11/19 03:17:50;;;;;;;192.07;55.45;;;;;;;-0.09;100.00;101196.51;1335701;105;21227;-88
2021/11/19 03:20:19;;;;;;;183.42;55.90;;;;;;;-0.07;100.00;101194.48;1366646;103;21363;-88
2021/11/19 03:22:46;;;;;;;197.43;58.40;;;;;;;-0.08;100.00;101186.73;1366101;103;21166;-88
2021/11/19 03:25:17;;;;;;;189.37;57.15;;;;;;;-0.08;100.00;101189.37;1363814;105;21675;-88
2021/11/19 03:27:45;;;;;;;188.52;57.17;;;;;;;-0.05;100.00;101185.05;1363767;105;21622;-87
2021/11/19 03:30:15;;;;;;;196.78;55.95;;;;;;;-0.05;100.00;101185.87;1363760;104;21708;-88
2021/11/19 03:32:42;;;;;;;193.32;55.12;;;;;;;-0.04;100.00;101189.34;1363545;104;21618;-88
2021/11/19 03:35:14;;;;;;;193.02;56.10;;;;;;;-0.03;100.00;101189.18;1379874;93;21154;-88
2021/11/19 03:37:38;;;;;;;192.32;55.20;;;;;;;-0.01;100.00;101184.51;1524597;93;21008;-88
2021/11/19 03:40:06;;;;;;;180.65;54.63;;;;;;;0.01;100.00;101186.17;1548852;91;20925;-88
2021/11/19 03:42:32;;;;;;;190.40;56.00;;;;;;;0.01;100.00;101184.34;1562082;91;21686;-88
2021/11/19 03:45:02;;;;;;;188.27;54.45;;;;;;;0.04;100.00;101184.50;1561676;91;40564;-88
2021/11/19 03:47:34;;;;;;;177.17;53.95;;;;;;;0.03;100.00;101178.38;1561980;90;21132;-88
2021/11/19 03:50:03;;;;;;;186.05;52.17;;;;;;;0.06;100.00;101179.83;1582541;89;21064;-88
2021/11/19 03:52:34;;;;;;;179.20;54.93;;;;;;;0.08;100.00;101177.84;1579331;89;21048;-88
2021/11/19 03:55:06;;;;;;;183.27;55.03;;;;;;;0.11;100.00;101196.03;1548332;91;21027;-89
2021/11/19 03:57:33;;;;;;;189.62;58.17;;;;;;;0.13;100.00;101202.81;1523018;92;22539;-89
2021/11/19 03:59:59;;;;;;;180.67;51.92;;;;;;;0.18;100.00;101191.69;1462953;94;21131;-90
2021/11/19 04:02:28;;;;;;;185.97;54.80;;;;;;;0.16;100.00;101190.53;1460113;96;21146;-90
2021/11/19 04:04:55;;;;;;;195.80;55.43;;;;;;;0.18;100.00;101193.02;1457005;97;21618;-90
2021/11/19 04:07:21;;;;;;;189.22;55.05;;;;;;;0.19;100.00;101192.83;1456785;98;21088;-89
2021/11/19 04:09:49;;;;;;;176.78;53.15;;;;;;;0.20;100.00;101190.48;1456517;97;21071;-89
2021/11/19 04:12:19;;;;;;;171.10;53.45;;;;;;;0.26;100.00;101192.94;1453626;98;21115;-90
2021/11/19 04:14:45;;;;;;;193.85;56.23;;;;;;;0.28;100.00;101185.64;1456821;96;21100;-87
2021/11/19 04:17:11;;;;;;;190.15;56.25;;;;;;;0.33;100.00;101188.59;1467381;97;21090;-87
2021/11/19 04:19:38;;;;;;;185.57;56.98;;;;;;;0.34;100.00;101185.44;1472720;97;20955;-88
2021/11/19 04:22:10;;;;;;;178.70;54.65;;;;;;;0.33;100.00;101184.61;1472546;97;21165;-89
2021/11/19 04:24:53;;;;;;;187.12;55.73;;;;;;;0.34;100.00;101184.92;1428552;100;21030;-89
2021/11/19 04:27:21;;;;;;;182.02;56.50;;;;;;;0.37;100.00;101188.55;1418246;99;21198;-89
2021/11/19 04:29:47;;;;;;;166.47;54.83;;;;;;;0.40;100.00;101184.72;1428594;100;21203;-88
2021/11/19 04:32:16;;;;;;;176.85;53.87;;;;;;;0.40;100.00;101189.52;1428375;100;21663;-89
2021/11/19 04:34:42;;;;;;;188.40;55.83;;;;;;;0.44;100.00;101180.22;1428413;100;21286;-89
2021/11/19 04:37:08;;;;;;;185.37;56.80;;;;;;;0.50;100.00;101183.98;1428834;99;21558;-89
2021/11/19 04:39:34;;;;;;;179.93;54.93;;;;;;;0.53;100.00;101189.41;1428531;100;21168;-88
2021/11/19 04:42:01;;;;;;;192.45;57.83;;;;;;;0.57;100.00;101186.23;1428345;99;21240;-89
2021/11/19 04:44:28;;;;;;;184.65;54.73;;;;;;;0.59;100.00;101178.08;1428574;99;21183;-89
2021/11/19 04:46:54;;;;;;;183.07;57.03;;;;;;;0.66;100.00;101177.70;1438536;98;21153;-89
2021/11/19 04:49:20;;;;;;;200.50;59.80;;;;;;;0.71;100.00;101179.32;1448854;98;21115;-89
2021/11/19 04:51:48;;;;;;;205.12;60.83;;;;;;;0.74;100.00;101170.18;1483238;93;21040;-89
2021/11/19 04:54:17;;;;;;;197.87;59.50;;;;;;;0.80;100.00;101176.09;1545185;90;21558;-89
2021/11/19 04:56:45;;;;;;;200.32;60.65;;;;;;;0.84;100.00;101175.53;1573743;90;21114;-89
2021/11/19 04:59:12;;;;;;;208.38;61.50;;;;;;;0.87;100.00;101178.33;1573753;90;21189;-89
2021/11/19 05:01:44;;;;;;;216.27;63.25;;;;;;;0.88;100.00;101178.63;1574015;90;21067;-89
2021/11/19 05:04:11;;;;;;;219.60;62.62;;;;;;;0.89;100.00;101179.80;1574342;90;21634;-89
2021/11/19 05:06:38;;;;;;;201.77;63.30;;;;;;;0.87;100.00;101174.34;1574047;90;21630;-89
2021/11/19 05:09:06;;;;;;;215.32;62.35;;;;;;;0.89;100.00;101167.03;1573834;90;21196;-89
2021/11/19 05:11:37;;;;;;;220.65;64.70;;;;;;;0.93;100.00;101174.94;1567299;91;21099;-89
2021/11/19 05:14:04;;;;;;;215.68;62.45;;;;;;;0.95;100.00;101176.10;1574168;90;21083;-89
2021/11/19 05:16:32;;;;;;;215.15;64.60;;;;;;;0.97;100.00;101182.03;1573933;90;21063;-89
2021/11/19 05:18:58;;;;;;;213.80;63.55;;;;;;;1.01;100.00;101176.70;1574304;90;21143;-89
2021/11/19 05:21:24;;;;;;;209.05;63.10;;;;;;;1.03;100.00;101174.19;1612252;86;20998;-89
2021/11/19 05:23:51;;;;;;;205.87;60.83;;;;;;;1.08;100.00;101172.30;1654141;86;21081;-89
2021/11/19 05:26:18;;;;;;;190.05;59.13;;;;;;;1.12;100.00;101178.90;1654495;86;21412;-88
2021/11/19 05:28:44;;;;;;;199.45;63.02;;;;;;;1.17;100.00;101180.98;1654247;86;21120;-88
2021/11/19 05:31:14;;;;;;;188.97;60.30;;;;;;;1.16;100.00;101170.88;1654108;86;21043;-89
2021/11/19 05:33:41;;;;;;;212.65;69.77;;;;;;;1.21;100.00;101159.73;1654407;86;21566;-89
2021/11/19 05:36:07;;;;;;;210.17;67.17;;;;;;;1.25;100.00;101164.47;1650185;86;21759;-89
2021/11/19 05:38:37;;;;;;;192.25;59.90;;;;;;;1.26;100.00;101165.28;1654187;86;21086;-89
2021/11/19 05:41:04;;;;;;;195.28;59.42;;;;;;;1.32;100.00;101168.05;1653897;86;21201;-90
2021/11/19 05:43:31;;;;;;;187.80;57.80;;;;;;;1.35;100.00;101161.03;1653903;86;20979;-89
2021/11/19 05:45:56;;;;;;;187.65;59.85;;;;;;;1.34;100.00;101162.53;1654276;86;21075;-89
2021/11/19 05:48:22;;;;;;;206.53;67.15;;;;;;;1.41;100.00;101148.01;1621882;87;21725;-89
2021/11/19 05:50:48;;;;;;;207.95;65.08;;;;;;;1.56;100.00;101151.48;1621871;88;21029;-89
2021/11/19 05:53:14;;;;;;;194.43;60.33;;;;;;;1.67;100.00;101149.64;1654245;86;20909;-89
2021/11/19 05:55:45;;;;;;;216.38;64.05;;;;;;;1.71;100.00;101149.61;1622061;88;21082;-90
2021/11/19 05:58:13;;;;;;;208.72;63.28;;;;;;;1.77;100.00;101148.85;1653170;85;21038;-89
2021/11/19 06:00:51;;;;;;;198.25;60.80;;;;;;;1.87;100.00;101145.06;1654544;86;21824;-89
2021/11/19 06:03:18;;;;;;;187.80;59.35;;;;;;;1.94;100.00;101140.62;1647755;85;21614;-90
2021/11/19 06:05:44;;;;;;;202.40;60.73;;;;;;;1.98;100.00;101136.08;1652583;84;21041;-90
2021/11/19 06:08:10;;;;;;;190.40;57.35;;;;;;;2.04;100.00;101131.84;1651403;85;20981;-90
2021/11/19 06:10:49;;;;;;;183.82;57.00;;;;;;;2.11;100.00;101147.33;1654889;84;21128;-89
2021/11/19 06:13:14;;;;;;;180.67;56.73;;;;;;;2.18;100.00;101144.25;1604491;88;21119;-90
2021/11/19 06:15:45;;;;;;;192.18;58.23;;;;;;;2.24;100.00;101140.00;1607089;88;21638;-90
2021/11/19 06:18:16;;;;;;;176.70;57.50;;;;;;;2.27;100.00;101143.09;1601222;88;21574;-90
2021/11/19 06:20:48;;;;;;;186.40;53.80;;;;;;;2.28;100.00;101140.74;1596003;89;21043;-91
2021/11/19 06:23:19;;;;;;;165.50;52.40;;;;;;;2.25;100.00;101137.14;1598430;89;21156;-91
2021/11/19 06:25:46;;;;;;;174.82;52.70;;;;;;;2.30;100.00;101141.08;1555117;92;21270;-90
2021/11/19 06:28:21;;;;;;;155.22;51.45;;;;;;;2.35;100.00;101141.30;1555083;92;21283;-90
2021/11/19 06:30:48;;;;;;;166.82;51.85;;;;;;;2.42;100.00;101140.87;1553451;92;21153;-91
2021/11/19 06:33:22;;;;;;;171.47;52.88;;;;;;;2.50;100.00;101150.05;1535515;92;21051;-90
2021/11/19 06:35:48;;;;;;;177.00;57.20;;;;;;;2.55;100.00;101144.95;1535676;92;21614;-88
2021/11/19 06:38:16;;;;;;;168.35;51.75;;;;;;;2.60;100.00;101141.20;1557018;91;22408;-90
2021/11/19 06:40:42;;;;;;;169.93;51.65;;;;;;;2.62;100.00;101141.03;1565270;91;21121;-90
2021/11/19 06:43:09;;;;;;;156.95;49.95;;;;;;;2.72;100.00;101147.63;1564896;91;21096;-90
2021/11/19 06:45:36;;;;;;;166.28;52.73;;;;;;;2.78;100.00;101151.87;1566864;91;21105;-90
2021/11/19 06:48:09;;;;;;;168.87;52.88;;;;;;;2.85;100.00;101142.08;1555250;91;21220;-90
2021/11/19 06:50:38;;;;;;;172.45;52.25;;;;;;;2.92;100.00;101142.45;1555141;91;21597;-89
2021/11/19 06:53:06;;;;;;;165.73;53.17;;;;;;;2.99;100.00;101131.02;1554759;91;21049;-91
2021/11/19 06:55:32;;;;;;;176.97;53.42;;;;;;;3.04;100.00;101131.25;1556938;90;21121;-92
2021/11/19 06:57:58;;;;;;;169.32;52.43;;;;;;;3.12;100.00;101130.58;1559535;91;21164;-92
2021/11/19 07:00:29;;;;;;;179.15;55.83;;;;;;;3.23;100.00;101139.02;1556577;90;21003;-92
2021/11/19 07:02:56;;;;;;;168.80;53.78;;;;;;;3.35;100.00;101135.61;1565766;89;21264;-93
2021/11/19 07:05:23;;;;;;;166.75;53.25;;;;;;;3.45;100.00;101129.90;1586308;89;21121;-93
2021/11/19 07:07:50;;;;;;;155.45;49.40;;;;;;;3.54;100.00;101130.55;1584093;89;21574;-95
2021/11/19 07:10:18;;;;;;;157.62;49.98;;;;;;;3.58;100.00;101129.92;1579254;89;21116;-94
2021/11/19 07:12:44;;;;;;;149.10;44.93;;;;;;;3.59;100.00;101123.59;1575626;89;21188;-92
2021/11/19 07:15:16;;;;;;;148.00;46.40;;;;;;;3.64;100.00;101131.79;1576723;89;21189;-93
2021/11/19 07:17:43;;;;;;;144.72;43.55;;;;;;;3.74;100.00;101125.28;1574815;89;21068;-92
2021/11/19 07:20:13;;;;;;;124.35;37.05;;;;;;;3.82;100.00;101127.73;1576252;89;21233;-94
2021/11/19 07:22:42;;;;;;;113.50;36.35;;;;;;;3.89;100.00;101124.59;1619311;85;21102;-92
2021/11/19 07:25:14;;;;;;;118.62;35.65;;;;;;;3.86;100.00;101124.48;1655840;85;21645;-95
2021/11/19 07:27:42;;;;;;;109.85;34.25;;;;;;;3.89;100.00;101132.59;1627828;86;21260;-94
2021/11/19 07:30:14;;;;;;;111.40;33.15;;;;;;;3.91;100.00;101128.37;1619488;88;21219;-94
2021/11/19 07:32:40;;;;;;;108.05;32.30;;;;;;;3.87;100.00;101136.77;1594131;89;21026;-94
2021/11/19 07:35:11;;;;;;;124.85;37.53;;;;;;;3.89;100.00;101135.25;1582267;88;21034;-92
2021/11/19 07:37:39;;;;;;;109.37;35.00;;;;;;;3.86;100.00;101136.47;1580718;88;21521;-94
2021/11/19 07:40:09;;;;;;;239.08;64.35;;;;;;;3.87;100.00;101139.44;1591858;89;21814;-94
2021/11/19 07:42:37;;;;;;;113.37;33.73;;;;;;;3.87;100.00;101138.11;1614669;88;21002;-93
2021/11/19 07:45:05;;;;;;;107.40;30.80;;;;;;;3.86;100.00;101129.81;1561205;89;21170;-93
2021/11/19 07:47:31;;;;;;;108.47;32.60;;;;;;;3.87;100.00;101127.95;1572909;89;21080;-93
2021/11/19 07:49:57;;;;;;;99.52;29.42;;;;;;;3.89;100.00;101127.25;1572755;91;21023;-94
2021/11/19 07:52:23;;;;;;;143.40;38.38;;;;;;;3.93;100.00;101125.00;1572793;89;21113;-93
2021/11/19 07:54:50;;;;;;;112.72;31.42;;;;;;;3.91;100.00;101113.19;1572494;91;20980;-93
2021/11/19 07:57:18;;;;;;;106.03;31.93;;;;;;;3.92;100.00;101120.18;1572518;90;21117;-94
2021/11/19 07:59:44;;;;;;;84.40;26.73;;;;;;;3.91;100.00;101125.19;1561291;89;21111;-95
2021/11/19 08:02:10;;;;;;;75.17;26.33;;;;;;;3.92;100.00;101122.84;1551729;90;21613;-92
2021/11/19 08:04:37;;;;;;;73.78;26.10;;;;;;;3.89;100.00;101117.92;1529755;93;21132;-94
2021/11/19 08:07:06;;;;;;;84.65;27.95;;;;;;;3.92;100.00;101114.84;1532996;92;21014;-93
2021/11/19 08:09:32;;;;;;;84.25;26.05;;;;;;;3.93;100.00;101105.81;1532911;92;21219;-93
2021/11/19 08:11:58;;;;;;;92.60;27.45;;;;;;;3.95;100.00;101105.63;1547382;91;20930;-94
2021/11/19 08:14:24;;;;;;;79.35;26.75;;;;;;;4.01;100.00;101090.96;1506987;92;21164;-93
2021/11/19 08:16:55;;;;;;;141.97;40.58;;;;;;;4.06;100.00;101087.17;1522595;94;21185;-94
2021/11/19 08:19:30;;;;;;;86.97;30.35;;;;;;;4.15;100.00;101088.28;1508217;93;21244;-92
2021/11/19 08:22:00;;;;;;;104.70;32.80;;;;;;;4.19;100.00;101086.87;1485065;96;21629;-92
2021/11/19 08:24:28;;;;;;;108.78;32.63;;;;;;;4.28;100.00;101092.30;1485252;96;21148;-92
2021/11/19 08:27:20;;;;;;;104.60;32.90;;;;;;;4.37;100.00;101085.72;1485376;95;21559;-94
2021/11/19 08:30:00;;;;;;;108.55;33.48;;;;;;;4.41;100.00;101077.63;1485130;96;21256;-94
2021/11/19 08:32:21;;;;;;;102.42;31.97;;;;;;;4.46;100.00;101075.66;1484888;96;21077;-91
2021/11/19 08:34:48;;;;;;;116.40;36.95;;;;;;;4.48;100.00;101065.09;1474605;95;21640;-93
2021/11/19 08:37:17;;;;;;;126.10;36.75;;;;;;;4.53;100.00;101058.62;1493381;95;21062;-92
2021/11/19 08:39:43;;;;;;;118.22;36.77;;;;;;;4.58;100.00;101059.83;1486536;95;21652;-92
2021/11/19 08:42:10;;;;;;;116.95;34.98;;;;;;;4.65;100.00;101057.47;1514399;94;21164;-94
2021/11/19 08:44:39;;;;;;;129.27;35.98;;;;;;;4.81;100.00;101067.37;1490575;94;21523;-91
2021/11/19 08:47:07;;;;;;;133.15;38.53;;;;;;;4.96;100.00;101067.42;1490963;95;21208;-91
2021/11/19 08:49:35;;;;;;;150.12;41.83;;;;;;;5.05;100.00;101062.66;1504933;93;21137;-94
2021/11/19 08:52:06;;;;;;;110.28;33.55;;;;;;;5.16;100.00;101062.53;1505083;93;21101;-93
2021/11/19 08:54:32;;;;;;;120.02;33.98;;;;;;;5.30;100.00;101060.63;1474567;95;22196;-94
2021/11/19 08:57:04;;;;;;;109.32;32.60;;;;;;;5.39;100.00;101059.34;1487179;94;21598;-94
2021/11/19 08:59:36;;;;;;;111.05;31.95;;;;;;;5.38;100.00;101059.02;1489616;94;21656;-94
2021/11/19 09:02:09;;;;;;;106.92;30.92;;;;;;;5.39;100.00;101060.16;1480836;94;21173;-93
2021/11/19 09:04:39;;;;;;;125.20;35.88;;;;;;;5.46;100.00;101058.25;1466694;96;21178;-93
2021/11/19 09:07:06;;;;;;;109.97;32.93;;;;;;;5.50;100.00;101047.13;1467916;95;21298;-92
2021/11/19 09:09:34;;;;;;;100.18;30.70;;;;;;;5.53;100.00;101035.52;1468123;97;21127;-92
2021/11/19 09:12:03;;;;;;;116.95;34.23;;;;;;;5.59;100.00;101031.13;1481137;94;21629;-93
2021/11/19 09:14:29;;;;;;;106.95;33.05;;;;;;;5.68;100.00;101036.55;1511002;94;21103;-93
2021/11/19 09:17:28;;;;;;;107.22;33.55;;;;;;;5.73;100.00;101034.02;1494926;94;21216;-92
2021/11/19 09:20:06;;;;;;;110.12;33.92;;;;;;;5.73;100.00;101040.70;1494476;95;22902;-93
2021/11/19 09:22:48;;;;;;;105.55;31.87;;;;;;;5.81;100.00;101043.64;1453770;97;21123;-93
2021/11/19 09:25:19;;;;;;;127.63;35.97;;;;;;;5.83;100.00;101034.38;1439625;97;21147;-92
2021/11/19 09:27:46;;;;;;;119.90;35.85;;;;;;;5.86;100.00;101024.58;1439043;98;21147;-93
2021/11/19 09:30:17;;;;;;;106.92;31.80;;;;;;;5.97;100.00;101025.77;1417380;99;21698;-93
2021/11/19 09:32:48;;;;;;;109.63;33.15;;;;;;;5.96;100.00;101021.95;1342452;105;21237;-93
2021/11/19 09:35:17;;;;;;;109.87;32.63;;;;;;;5.96;100.00;101020.09;1323151;108;21519;-93
2021/11/19 09:37:44;;;;;;;109.52;32.65;;;;;;;6.00;100.00;101006.60;1323152;107;21801;-92
2021/11/19 09:40:12;;;;;;;97.33;30.92;;;;;;;6.08;100.00;101002.81;1323032;107;21819;-93
2021/11/19 09:43:11;;;;;;;113.92;32.90;;;;;;;6.18;100.00;100996.45;1323994;108;21210;-92
2021/11/19 09:46:11;;;;;;;106.78;31.73;;;;;;;6.30;100.00;100995.20;1341763;106;21218;-93
2021/11/19 09:49:14;;;;;;;325.02;67.95;;;;;;;6.40;100.00;100987.99;1331548;106;21622;-93
2021/11/19 09:52:05;;;;;;;492.10;107.58;;;;;;;6.43;100.00;100987.02;1398501;101;21191;-92
2021/11/19 09:55:22;;;;;;;112.30;31.50;;;;;;;6.51;100.00;100981.38;1414234;101;21174;-91
2021/11/19 09:58:15;;;;;;;109.67;32.10;;;;;;;6.49;100.00;100990.67;1411777;100;21158;-94
2021/11/19 10:01:26;;;;;;;90.47;27.10;;;;;;;6.45;100.00;100984.95;1468549;96;21852;-90
2021/11/19 10:04:20;;;;;;;77.55;25.37;;;;;;;6.43;100.00;100981.67;1482538;95;21654;-90
2021/11/19 10:07:21;;;;;;;71.30;24.10;;;;;;;6.40;100.00;100981.30;1482383;95;21123;-91
2021/11/19 10:10:30;;;;;;;70.00;24.90;;;;;;;6.33;100.00;100982.72;1454633;98;21154;-90
2021/11/19 10:13:13;;;;;;;68.75;22.73;;;;;;;6.21;100.00;100972.45;1452842;98;21195;-90
2021/11/19 10:16:09;;;;;;;74.58;25.70;;;;;;;6.16;100.00;100970.95;1458358;97;21947;-90
2021/11/19 10:18:46;;;;;;;72.95;24.07;;;;;;;6.12;100.00;100966.56;1447147;99;21149;-90
2021/11/19 10:21:20;;;;;;;176.12;42.15;;;;;;;5.95;100.00;100969.51;1408902;101;21101;-91
2021/11/19 10:23:54;;;;;;;80.53;24.15;;;;;;;5.97;100.00;100967.41;1415226;100;21191;-90
2021/11/19 10:26:28;;;;;;;69.50;21.68;;;;;;;6.01;100.00;100961.94;1415485;101;21774;-90
2021/11/19 10:28:59;;;;;;;111.88;30.88;;;;;;;5.96;100.00;100960.44;1408852;100;21188;-90
2021/11/19 10:31:27;;;;;;;77.95;24.02;;;;;;;5.96;100.00;100955.08;1378329;102;21089;-89
2021/11/19 10:34:27;;;;;;;126.07;32.93;;;;;;;5.96;100.00;100957.75;1393659;102;21180;-89
2021/11/19 10:37:53;;;;;;;121.40;32.78;;;;;;;5.99;100.00;100946.62;1398685;101;22313;-91
2021/11/19 10:40:36;;;;;;;70.42;23.10;;;;;;;5.99;100.00;100946.62;1393889;101;22215;-88
2021/11/19 10:43:34;;;;;;;71.35;23.85;;;;;;;6.00;100.00;100938.38;1377629;102;22073;-91
2021/11/19 10:46:37;;;;;;;80.85;24.05;;;;;;;6.00;100.00;100941.55;1366935;104;21224;-91
2021/11/19 10:49:38;;;;;;;80.83;26.62;;;;;;;5.99;100.00;100942.08;1384208;101;21189;-90
2021/11/19 10:52:46;;;;;;;77.00;25.10;;;;;;;6.01;100.00;100940.01;1379121;100;21184;-93
2021/11/19 10:55:50;;;;;;;78.90;24.98;;;;;;;6.01;100.00;100933.32;1410137;101;21191;-90
2021/11/19 10:58:51;;;;;;;78.80;26.45;;;;;;;6.02;100.00;100930.12;1417889;98;21230;-90
2021/11/19 11:01:38;;;;;;;68.72;24.25;;;;;;;6.05;100.00;100933.69;1410040;99;21662;-90
2021/11/19 11:07:19;;;;;;;72.30;23.05;;;;;;;5.86;100.00;100921.61;1384670;103;21299;-90
2021/11/19 11:10:02;;;;;;;83.80;24.52;;;;;;;5.81;100.00;100926.79;1384741;103;21219;-89
2021/11/19 11:12:45;;;;;;;87.07;28.10;;;;;;;5.79;100.00;100920.83;1363477;103;22113;-89
2021/11/19 11:15:37;;;;;;;81.82;27.48;;;;;;;5.84;100.00;100915.65;1342010;106;21159;-90
2021/11/19 11:18:15;;;;;;;79.10;26.45;;;;;;;5.88;100.00;100913.34;1346926;104;21243;-90
2021/11/19 11:20:55;;;;;;;75.35;23.95;;;;;;;5.90;100.00;100908.60;1381408;100;21113;-91
2021/11/19 11:23:38;;;;;;;69.15;23.57;;;;;;;5.92;100.00;100907.34;1396506;100;21735;-90
2021/11/19 11:26:11;;;;;;;73.72;23.45;;;;;;;5.94;100.00;100904.47;1442619;97;21221;-90
2021/11/19 11:29:00;;;;;;;77.17;24.65;;;;;;;6.00;100.00;100898.75;1450688;98;21632;-89